createdAt,value
2017-10-25T00:07:37.000Z,1012.474
2017-10-25T00:17:37.000Z,1012.371
2017-10-25T00:27:37.000Z,1012.403
2017-10-25T00:37:38.000Z,1012.41
2017-10-25T00:47:37.000Z,1012.264
2017-10-25T00:57:37.000Z,1012.257
2017-10-25T01:07:37.000Z,1012.228
2017-10-25T01:17:37.000Z,1012.167
2017-10-25T01:27:37.000Z,1012.091
2017-10-25T01:37:37.000Z,1012.018
2017-10-25T01:47:37.000Z,1011.988
2017-10-25T01:57:37.000Z,1012.029
2017-10-25T02:07:37.000Z,1012.005
2017-10-25T02:17:37.000Z,1011.857
2017-10-25T02:27:37.000Z,1011.858
2017-10-25T02:37:40.000Z,1011.812
2017-10-25T02:47:37.000Z,1011.686
2017-10-25T02:57:37.000Z,1011.662
2017-10-25T03:07:37.000Z,1011.615
2017-10-25T03:17:38.000Z,1011.664
2017-10-25T03:27:38.000Z,1011.626
2017-10-25T03:37:38.000Z,1011.588
2017-10-25T03:47:38.000Z,1011.547
2017-10-25T03:57:38.000Z,1011.553
2017-10-25T04:07:38.000Z,1011.58
2017-10-25T04:17:38.000Z,1011.509
2017-10-25T04:27:38.000Z,1011.439
2017-10-25T04:37:38.000Z,1011.291
2017-10-25T04:47:38.000Z,1011.226
2017-10-25T04:57:38.000Z,1011.219
2017-10-25T05:07:38.000Z,1011.114
2017-10-25T05:17:38.000Z,1010.876
2017-10-25T05:27:38.000Z,1010.741
2017-10-25T05:37:38.000Z,1010.498
2017-10-25T05:47:38.000Z,1010.496
2017-10-25T05:57:38.000Z,1010.376
2017-10-25T06:07:38.000Z,1010.504
2017-10-25T06:17:38.000Z,1010.479
2017-10-25T06:27:38.000Z,1010.578
2017-10-25T06:37:38.000Z,1010.887
2017-10-25T06:47:38.000Z,1010.991
2017-10-25T06:57:38.000Z,1011.333
2017-10-25T07:07:38.000Z,1011.513
2017-10-25T07:17:38.000Z,1011.505
2017-10-25T07:27:38.000Z,1011.471
2017-10-25T07:37:38.000Z,1011.481
2017-10-25T07:47:38.000Z,1011.456
2017-10-25T07:57:38.000Z,1011.343
2017-10-25T08:07:38.000Z,1011.401
2017-10-25T08:17:38.000Z,1011.512
2017-10-25T08:27:38.000Z,1011.492
2017-10-25T08:37:38.000Z,1011.488
2017-10-25T08:47:38.000Z,1011.479
2017-10-25T08:57:38.000Z,1011.827
2017-10-25T09:07:38.000Z,1011.748
2017-10-25T09:17:38.000Z,1012.007
2017-10-25T09:27:38.000Z,1012.14
2017-10-25T09:37:38.000Z,1012.059
2017-10-25T09:47:39.000Z,1012.095
2017-10-25T09:57:38.000Z,1012.03
2017-10-25T10:07:38.000Z,1012.262
2017-10-25T10:17:38.000Z,1012.291
2017-10-25T10:27:38.000Z,1012.329
2017-10-25T10:37:38.000Z,1012.476
2017-10-25T10:47:38.000Z,1012.422
2017-10-25T10:57:38.000Z,1012.505
2017-10-25T11:07:38.000Z,1012.657
2017-10-25T11:17:38.000Z,1012.68
2017-10-25T11:27:40.000Z,1012.733
2017-10-25T11:37:38.000Z,1012.761
2017-10-25T11:47:39.000Z,1012.764
2017-10-25T12:07:39.000Z,1012.797
2017-10-25T12:17:39.000Z,1012.896
2017-10-25T12:27:39.000Z,1012.979
2017-10-25T12:37:39.000Z,1012.91
2017-10-25T12:47:39.000Z,1012.834
2017-10-25T12:57:39.000Z,1013.088
2017-10-25T13:07:39.000Z,1013.184
2017-10-25T13:17:39.000Z,1013.287
2017-10-25T13:27:39.000Z,1013.491
2017-10-25T13:37:39.000Z,1013.495
2017-10-25T13:47:39.000Z,1013.443
2017-10-25T13:57:39.000Z,1013.634
2017-10-25T14:07:39.000Z,1013.713
2017-10-25T14:17:39.000Z,1013.861
2017-10-25T14:27:39.000Z,1013.73
2017-10-25T14:37:39.000Z,1013.858
2017-10-25T14:47:39.000Z,1014.008
2017-10-25T14:57:39.000Z,1014.144
2017-10-25T15:07:39.000Z,1014.184
2017-10-25T15:17:39.000Z,1014.29
2017-10-25T15:27:39.000Z,1014.232
2017-10-25T15:37:39.000Z,1014.312
2017-10-25T15:47:39.000Z,1014.349
2017-10-25T15:57:39.000Z,1014.369
2017-10-25T16:07:39.000Z,1014.492
2017-10-25T16:17:39.000Z,1014.598
2017-10-25T16:27:39.000Z,1014.682
2017-10-25T16:37:39.000Z,1014.78
2017-10-25T16:47:39.000Z,1014.856
2017-10-25T16:57:39.000Z,1014.915
2017-10-25T17:07:39.000Z,1015.022
2017-10-25T17:17:39.000Z,1015.003
2017-10-25T17:27:40.000Z,1015.244
2017-10-25T17:37:39.000Z,1015.426
2017-10-25T17:47:39.000Z,1015.492
2017-10-25T17:57:39.000Z,1015.635
2017-10-25T18:07:39.000Z,1015.564
2017-10-25T18:17:39.000Z,1015.717
2017-10-25T18:27:39.000Z,1015.655
2017-10-25T18:37:39.000Z,1015.821
2017-10-25T18:47:39.000Z,1015.965
2017-10-25T18:57:41.000Z,1016.078
2017-10-25T19:07:39.000Z,1016.067
2017-10-25T19:17:39.000Z,1016.175
2017-10-25T19:27:39.000Z,1016.253
2017-10-25T19:37:42.000Z,1016.342
2017-10-25T19:47:39.000Z,1016.388
2017-10-25T19:57:39.000Z,1016.365
2017-10-25T20:07:40.000Z,1016.373
2017-10-25T20:17:40.000Z,1016.309
2017-10-25T20:27:40.000Z,1016.6
2017-10-25T20:37:40.000Z,1016.603
2017-10-25T20:47:40.000Z,1016.732
2017-10-25T20:57:44.000Z,1016.742
2017-10-25T21:07:40.000Z,1017.059
2017-10-25T21:17:40.000Z,1017.06
2017-10-25T21:27:40.000Z,1017.058
2017-10-25T21:37:40.000Z,1017.018
2017-10-25T21:47:40.000Z,1016.952
2017-10-25T21:57:40.000Z,1016.971
2017-10-25T22:17:40.000Z,1017.12
2017-10-25T22:27:40.000Z,1017.218
2017-10-25T22:37:40.000Z,1017.216
2017-10-25T22:47:40.000Z,1017.22
2017-10-25T22:57:40.000Z,1017.209
2017-10-25T23:07:40.000Z,1017.289
2017-10-25T23:17:40.000Z,1017.269
2017-10-25T23:27:40.000Z,1017.247
2017-10-25T23:37:40.000Z,1017.319
2017-10-25T23:47:40.000Z,1017.196
2017-10-25T23:57:40.000Z,1017.196
